createdAt,value
2022-08-05T00:00:54.742Z,22.27
2022-08-05T00:03:20.941Z,22.22
2022-08-05T00:06:05.260Z,22.27
2022-08-05T00:08:36.178Z,22.39
2022-08-05T00:11:02.530Z,22.33
2022-08-05T00:13:38.180Z,22.37
2022-08-05T00:16:05.842Z,22.30
2022-08-05T00:18:34.647Z,22.18
2022-08-05T00:21:00.787Z,22.12
2022-08-05T00:23:30.840Z,22.05
2022-08-05T00:26:12.673Z,22.15
2022-08-05T00:28:38.824Z,22.16
2022-08-05T00:31:07.628Z,22.13
2022-08-05T00:34:54.549Z,22.08
2022-08-05T00:37:09.801Z,22.03
2022-08-05T00:39:06.430Z,22.08
2022-08-05T00:41:54.913Z,22.08
2022-08-05T00:44:21.939Z,22.01
2022-08-05T00:46:54.171Z,21.84
2022-08-05T00:49:32.830Z,21.86
2022-08-05T00:52:10.672Z,21.82
2022-08-05T00:54:38.165Z,21.86
2022-08-05T00:57:04.295Z,21.78
2022-08-05T00:59:34.569Z,21.80
2022-08-05T01:02:10.883Z,21.79
2022-08-05T01:04:37.553Z,21.73
2022-08-05T01:07:08.362Z,21.78
2022-08-05T01:09:40.031Z,21.83
2022-08-05T01:12:18.227Z,21.82
2022-08-05T01:14:45.101Z,21.81
2022-08-05T01:17:11.249Z,21.73
2022-08-05T01:20:01.915Z,21.67
2022-08-05T01:22:24.472Z,21.67
2022-08-05T01:24:54.332Z,21.73
2022-08-05T01:27:22.253Z,21.70
2022-08-05T01:29:48.480Z,21.67
2022-08-05T01:32:18.588Z,21.69
2022-08-05T01:34:44.933Z,21.67
2022-08-05T01:37:24.677Z,21.73
2022-08-05T01:39:51.586Z,21.66
2022-08-05T01:42:22.439Z,21.62
2022-08-05T01:44:54.092Z,21.46
2022-08-05T01:47:21.055Z,21.55
2022-08-05T01:50:01.796Z,21.49
2022-08-05T01:52:29.102Z,21.39
2022-08-05T01:54:56.490Z,21.44
2022-08-05T01:58:10.131Z,21.42
2022-08-05T02:00:12.049Z,21.49
2022-08-05T02:02:38.473Z,21.53
2022-08-05T02:05:13.025Z,21.39
2022-08-05T02:07:41.623Z,21.43
2022-08-05T02:10:17.242Z,21.43
2022-08-05T02:12:43.710Z,21.32
2022-08-05T02:15:19.622Z,21.35
2022-08-05T02:18:27.948Z,21.26
2022-08-05T02:20:32.200Z,21.25
2022-08-05T02:23:05.331Z,21.27
2022-08-05T02:25:35.983Z,21.31
2022-08-05T02:28:16.494Z,21.25
2022-08-05T02:30:56.542Z,21.13
2022-08-05T02:33:24.361Z,21.01
2022-08-05T02:36:01.970Z,21.20
2022-08-05T02:38:28.681Z,21.28
2022-08-05T02:41:14.737Z,21.12
2022-08-05T02:44:02.710Z,20.96
2022-08-05T02:46:30.434Z,21.01
2022-08-05T02:48:56.668Z,21.08
2022-08-05T02:51:48.444Z,21.09
2022-08-05T02:54:08.925Z,21.10
2022-08-05T02:56:55.039Z,20.98
2022-08-05T02:59:21.200Z,21.05
2022-08-05T03:01:53.406Z,20.92
2022-08-05T03:04:19.572Z,20.89
2022-08-05T03:06:55.668Z,20.78
2022-08-05T03:09:36.164Z,20.66
2022-08-05T03:12:03.747Z,20.74
2022-08-05T03:14:29.869Z,20.65
2022-08-05T03:16:56.794Z,20.75
2022-08-05T03:19:34.230Z,20.76
2022-08-05T03:22:02.218Z,20.88
2022-08-05T03:24:31.009Z,20.90
2022-08-05T03:26:57.144Z,20.71
2022-08-05T03:29:23.481Z,20.56
2022-08-05T03:31:57.377Z,20.56
2022-08-05T03:34:26.530Z,20.65
2022-08-05T03:36:53.181Z,20.70
2022-08-05T03:39:20.217Z,20.62
2022-08-05T03:41:53.474Z,20.58
2022-08-05T03:44:23.038Z,20.60
2022-08-05T03:46:49.154Z,20.68
2022-08-05T03:49:15.401Z,20.56
2022-08-05T03:52:36.628Z,20.51
2022-08-05T03:55:52.151Z,20.52
2022-08-05T03:57:16.033Z,20.50
2022-08-05T03:59:47.656Z,20.34
2022-08-05T04:02:37.900Z,20.26
2022-08-05T04:05:05.582Z,20.16
2022-08-05T04:07:46.736Z,20.16
2022-08-05T04:10:22.556Z,20.18
2022-08-05T04:12:48.718Z,20.16
2022-08-05T04:15:15.589Z,20.15
2022-08-05T04:17:56.216Z,20.11
2022-08-05T04:20:26.154Z,20.18
2022-08-05T04:22:52.287Z,20.32
2022-08-05T04:25:18.414Z,20.33
2022-08-05T04:27:57.309Z,20.26
2022-08-05T04:30:25.088Z,20.09
2022-08-05T04:32:52.778Z,20.14
2022-08-05T04:35:19.917Z,20.07
2022-08-05T04:38:01.727Z,19.99
2022-08-05T04:40:32.367Z,19.94
2022-08-05T04:42:58.524Z,20.06
2022-08-05T04:45:47.832Z,20.05
2022-08-05T04:48:18.533Z,20.08
2022-08-05T04:51:02.632Z,20.08
2022-08-05T04:53:36.061Z,20.12
2022-08-05T04:56:33.174Z,20.16
2022-08-05T04:58:48.335Z,20.06
2022-08-05T05:01:14.578Z,19.86
2022-08-05T05:04:00.002Z,19.79
2022-08-05T05:06:39.418Z,19.77
2022-08-05T05:09:13.281Z,19.82
2022-08-05T05:11:48.570Z,19.89
2022-08-05T05:14:31.225Z,20.05
2022-08-05T05:16:57.922Z,20.15
2022-08-05T05:19:26.623Z,20.15
2022-08-05T05:22:03.639Z,20.11
2022-08-05T05:24:56.804Z,20.20
2022-08-05T05:27:24.649Z,20.05
2022-08-05T05:30:08.146Z,20.21
2022-08-05T05:32:41.927Z,20.15
2022-08-05T05:35:08.727Z,20.04
2022-08-05T05:37:53.709Z,20.05
2022-08-05T05:40:20.994Z,19.66
2022-08-05T05:42:52.346Z,19.64
2022-08-05T05:45:18.915Z,19.78
2022-08-05T05:48:06.140Z,19.73
2022-08-05T05:50:32.693Z,19.71
2022-08-05T05:53:00.273Z,19.73
2022-08-05T05:55:51.812Z,19.50
2022-08-05T05:58:12.533Z,19.14
2022-08-05T06:00:40.443Z,19.50
2022-08-05T06:03:40.772Z,19.43
2022-08-05T06:05:58.189Z,19.46
2022-08-05T06:08:31.687Z,19.53
2022-08-05T06:10:59.515Z,19.59
2022-08-05T06:13:26.397Z,19.74
2022-08-05T06:16:31.451Z,19.92
2022-08-05T06:18:39.440Z,20.12
2022-08-05T06:21:05.625Z,20.21
2022-08-05T06:23:43.929Z,20.09
2022-08-05T06:26:13.698Z,19.93
2022-08-05T06:28:47.257Z,19.88
2022-08-05T06:31:17.736Z,20.04
2022-08-05T06:34:07.262Z,20.13
2022-08-05T06:36:57.657Z,20.30
2022-08-05T06:39:16.848Z,20.28
2022-08-05T06:41:43.522Z,20.45
2022-08-05T06:44:09.912Z,20.49
2022-08-05T06:46:36.046Z,20.56
2022-08-05T06:49:02.617Z,20.59
2022-08-05T06:51:33.753Z,20.60
2022-08-05T06:53:59.958Z,20.57
2022-08-05T06:56:27.040Z,20.60
2022-08-05T06:58:53.359Z,20.76
2022-08-05T07:01:20.964Z,20.90
2022-08-05T07:03:47.418Z,20.85
2022-08-05T07:06:14.322Z,20.72
2022-08-05T07:08:41.872Z,20.69
2022-08-05T07:11:15.234Z,20.62
2022-08-05T07:13:58.082Z,20.71
2022-08-05T07:17:59.043Z,20.55
2022-08-05T07:19:12.209Z,20.60
2022-08-05T07:22:00.607Z,20.64
2022-08-05T07:24:28.663Z,20.52
2022-08-05T07:26:56.116Z,20.47
2022-08-05T07:29:25.424Z,20.30
2022-08-05T07:32:08.371Z,20.24
2022-08-05T07:34:35.248Z,20.13
2022-08-05T07:37:03.338Z,20.18
2022-08-05T07:40:26.588Z,20.19
2022-08-05T07:42:15.740Z,20.19
2022-08-05T07:44:42.522Z,19.94
2022-08-05T07:47:13.471Z,19.92
2022-08-05T07:49:43.475Z,19.94
2022-08-05T07:52:20.351Z,19.82
2022-08-05T07:54:50.005Z,19.65
2022-08-05T07:57:52.248Z,19.43
2022-08-05T08:00:02.347Z,19.64
2022-08-05T08:02:31.182Z,19.64
2022-08-05T08:05:14.724Z,19.52
2022-08-05T08:07:59.655Z,19.68
2022-08-05T08:10:26.802Z,19.33
2022-08-05T08:12:52.931Z,19.62
2022-08-05T08:15:51.286Z,19.45
2022-08-05T08:18:13.776Z,19.34
2022-08-05T08:20:43.429Z,19.39
2022-08-05T08:24:02.807Z,19.36
2022-08-05T08:26:00.069Z,19.19
2022-08-05T08:28:35.539Z,19.04
2022-08-05T08:33:51.717Z,18.54
2022-08-05T08:36:38.800Z,18.38
2022-08-05T08:39:05.509Z,18.54
2022-08-05T08:41:52.215Z,18.52
2022-08-05T08:45:22.939Z,18.23
2022-08-05T08:47:48.093Z,18.39
2022-08-05T08:50:22.973Z,18.34
2022-08-05T08:52:47.199Z,18.39
2022-08-05T08:55:19.521Z,18.27
2022-08-05T08:57:58.686Z,18.01
2022-08-05T09:00:24.867Z,18.21
2022-08-05T09:02:52.388Z,18.26
2022-08-05T09:05:18.564Z,18.04
2022-08-05T09:08:04.668Z,17.85
2022-08-05T09:10:30.809Z,17.95
2022-08-05T09:13:04.545Z,17.68
2022-08-05T09:15:31.492Z,17.79
2022-08-05T09:18:02.994Z,17.98
2022-08-05T09:20:37.338Z,18.02
2022-08-05T09:23:05.207Z,17.84
2022-08-05T09:26:01.504Z,17.72
2022-08-05T09:28:20.990Z,17.67
2022-08-05T09:30:47.455Z,17.51
2022-08-05T09:33:17.199Z,17.46
2022-08-05T09:35:43.772Z,17.50
2022-08-05T09:38:16.906Z,17.38
2022-08-05T09:40:52.033Z,17.32
2022-08-05T09:43:19.046Z,17.22
2022-08-05T09:46:06.617Z,17.29
2022-08-05T09:48:32.451Z,17.34
2022-08-05T09:50:58.594Z,17.15
2022-08-05T09:53:54.681Z,17.10
2022-08-05T09:56:13.530Z,17.05
2022-08-05T09:58:41.886Z,17.13
2022-08-05T10:01:14.561Z,17.24
2022-08-05T10:03:58.665Z,17.58
2022-08-05T10:06:25.836Z,17.30
2022-08-05T10:08:55.342Z,17.19
2022-08-05T10:11:21.853Z,17.42
2022-08-05T10:13:49.310Z,17.61
2022-08-05T10:16:15.658Z,17.20
2022-08-05T10:18:47.965Z,16.96
2022-08-05T10:21:16.322Z,17.16
2022-08-05T10:24:00.133Z,17.23
2022-08-05T10:26:32.424Z,17.18
2022-08-05T10:28:59.995Z,17.28
2022-08-05T10:32:55.491Z,17.32
2022-08-05T10:34:12.376Z,17.25
2022-08-05T10:36:39.715Z,17.44
2022-08-05T10:39:11.807Z,17.34
2022-08-05T10:41:45.353Z,17.31
2022-08-05T10:44:13.365Z,17.49
2022-08-05T10:46:39.498Z,17.73
2022-08-05T10:49:09.856Z,17.63
2022-08-05T10:51:36.428Z,17.61
2022-08-05T10:54:32.676Z,17.84
2022-08-05T10:57:00.832Z,17.67
2022-08-05T11:00:03.195Z,18.02
2022-08-05T11:02:14.289Z,18.25
2022-08-05T11:04:59.110Z,17.90
2022-08-05T11:07:32.750Z,17.92
2022-08-05T11:10:12.609Z,17.94
2022-08-05T11:12:41.275Z,18.13
2022-08-05T11:15:19.445Z,18.10
2022-08-05T11:17:57.499Z,17.94
2022-08-05T11:20:26.721Z,17.96
2022-08-05T11:22:58.016Z,18.00
2022-08-05T11:26:05.145Z,18.04
2022-08-05T11:28:17.219Z,18.20
2022-08-05T11:30:47.877Z,18.24
2022-08-05T11:33:21.284Z,18.17
2022-08-05T11:36:02.764Z,17.96
2022-08-05T11:38:45.425Z,18.00
2022-08-05T11:41:34.349Z,18.30
2022-08-05T11:44:05.614Z,18.26
2022-08-05T11:46:34.148Z,18.21
2022-08-05T11:49:01.143Z,18.41
2022-08-05T11:51:44.207Z,18.64
2022-08-05T11:54:14.066Z,18.66
2022-08-05T11:56:40.965Z,18.66
2022-08-05T11:59:13.566Z,18.59
2022-08-05T12:01:40.163Z,18.89
2022-08-05T12:04:06.306Z,19.11
2022-08-05T12:06:32.458Z,19.12
2022-08-05T12:08:59.404Z,19.28
2022-08-05T12:11:28.423Z,19.35
2022-08-05T12:14:06.177Z,19.49
2022-08-05T12:16:33.291Z,19.66
2022-08-05T12:19:04.736Z,19.88
2022-08-05T12:21:34.398Z,20.00
2022-08-05T12:24:07.111Z,20.35
2022-08-05T12:26:33.608Z,20.34
2022-08-05T12:29:01.412Z,20.48
2022-08-05T12:31:32.654Z,20.34
2022-08-05T12:34:07.627Z,20.36
2022-08-05T12:36:33.782Z,20.47
2022-08-05T12:39:01.105Z,20.52
2022-08-05T12:41:34.177Z,20.74
2022-08-05T12:44:00.839Z,20.88
2022-08-05T12:46:29.265Z,20.70
2022-08-05T12:48:56.020Z,20.74
2022-08-05T12:52:13.514Z,20.71
2022-08-05T12:54:14.739Z,20.64
2022-08-05T12:56:43.172Z,20.58
2022-08-05T12:59:11.384Z,20.27
2022-08-05T13:02:01.963Z,20.46
2022-08-05T13:04:26.388Z,20.65
2022-08-05T13:06:53.288Z,20.79
2022-08-05T13:09:28.643Z,20.86
2022-08-05T13:12:03.114Z,20.96
2022-08-05T13:14:36.115Z,21.28
2022-08-05T13:17:02.890Z,21.25
2022-08-05T13:19:52.090Z,21.36
2022-08-05T13:22:28.446Z,21.44
2022-08-05T13:24:57.390Z,21.60
2022-08-05T13:27:37.327Z,21.37
2022-08-05T13:30:32.879Z,21.58
2022-08-05T13:32:51.104Z,21.75
2022-08-05T13:35:22.288Z,21.80
2022-08-05T13:37:57.383Z,21.51
2022-08-05T13:40:42.368Z,21.49
2022-08-05T13:43:22.168Z,21.44
2022-08-05T13:45:48.538Z,21.94
2022-08-05T13:48:58.358Z,22.16
2022-08-05T13:51:03.147Z,22.00
2022-08-05T13:53:29.283Z,21.86
2022-08-05T13:56:01.980Z,22.18
2022-08-05T13:58:30.432Z,21.85
2022-08-05T14:00:57.286Z,21.53
2022-08-05T14:03:23.919Z,21.39
2022-08-05T14:06:26.349Z,21.53
2022-08-05T14:08:36.573Z,21.74
2022-08-05T14:11:20.538Z,21.81
2022-08-05T14:13:48.014Z,21.85
2022-08-05T14:16:16.976Z,21.88
2022-08-05T14:18:45.303Z,22.32
2022-08-05T14:22:07.372Z,22.37
2022-08-05T14:23:57.629Z,22.57
2022-08-05T14:26:38.626Z,23.26
2022-08-05T14:29:16.324Z,23.27
2022-08-05T14:32:02.950Z,23.69
2022-08-05T14:34:29.090Z,23.69
2022-08-05T14:37:01.748Z,23.18
2022-08-05T14:39:27.933Z,22.87
2022-08-05T14:42:19.485Z,22.68
2022-08-05T14:44:41.465Z,22.67
2022-08-05T14:47:07.753Z,22.75
2022-08-05T14:49:56.768Z,22.81
2022-08-05T14:52:42.800Z,22.85
2022-08-05T14:55:07.354Z,22.46
2022-08-05T14:57:34.027Z,22.43
2022-08-05T15:00:20.019Z,22.40
2022-08-05T15:02:46.346Z,22.04
2022-08-05T15:05:13.526Z,21.69
2022-08-05T15:08:09.154Z,21.64
2022-08-05T15:10:28.743Z,21.56
2022-08-05T15:13:00.816Z,21.18
2022-08-05T15:15:54.250Z,21.35
2022-08-05T15:18:14.756Z,21.33
2022-08-05T15:20:43.481Z,21.50
2022-08-05T15:23:12.179Z,21.73
2022-08-05T15:25:51.285Z,21.46
2022-08-05T15:28:19.285Z,21.34
2022-08-05T15:30:53.095Z,21.24
2022-08-05T15:33:56.903Z,21.41
2022-08-05T15:36:05.793Z,21.55
2022-08-05T15:38:43.246Z,21.45
2022-08-05T15:41:22.822Z,21.52
2022-08-05T15:43:50.297Z,21.65
2022-08-05T15:46:16.907Z,21.73
2022-08-05T15:48:52.493Z,21.83
2022-08-05T15:52:04.393Z,22.03
2022-08-05T15:54:14.994Z,22.60
2022-08-05T15:56:41.983Z,23.16
2022-08-05T15:59:08.144Z,23.49
2022-08-05T16:01:39.370Z,22.88
2022-08-05T16:04:06.211Z,23.07
2022-08-05T16:06:36.511Z,23.28
2022-08-05T16:09:02.877Z,23.26
2022-08-05T16:11:39.903Z,23.12
2022-08-05T16:14:09.393Z,23.37
2022-08-05T16:16:35.557Z,24.63
2022-08-05T16:19:01.682Z,24.16
2022-08-05T16:21:59.370Z,23.37
2022-08-05T16:24:40.460Z,24.49
2022-08-05T16:27:00.516Z,23.84
2022-08-05T16:29:26.747Z,24.36
2022-08-05T16:31:56.357Z,25.68
2022-08-05T16:34:23.756Z,24.57
2022-08-05T16:36:50.177Z,25.46
2022-08-05T16:39:18.668Z,26.69
2022-08-05T16:42:14.562Z,26.71
2022-08-05T16:44:33.082Z,24.92
2022-08-05T16:46:59.214Z,24.36
2022-08-05T16:49:25.350Z,24.08
2022-08-05T16:51:54.987Z,23.95
2022-08-05T16:54:29.001Z,24.01
2022-08-05T16:56:58.951Z,23.97
2022-08-05T16:59:25.090Z,24.57
2022-08-05T17:01:56.224Z,24.59
2022-08-05T17:04:23.669Z,24.28
2022-08-05T17:06:53.040Z,25.05
2022-08-05T17:09:19.827Z,25.47
2022-08-05T17:11:48.208Z,24.71
2022-08-05T17:14:34.230Z,25.13
2022-08-05T17:17:00.875Z,23.50
2022-08-05T17:19:28.786Z,22.96
2022-08-05T17:21:56.731Z,22.97
2022-08-05T17:24:35.154Z,23.46
2022-08-05T17:27:08.509Z,24.00
2022-08-05T17:29:40.994Z,24.13
2022-08-05T17:32:08.452Z,24.98
2022-08-05T17:34:37.714Z,25.17
2022-08-05T17:37:04.658Z,25.51
2022-08-05T17:39:51.170Z,25.52
2022-08-05T17:42:28.442Z,25.12
2022-08-05T17:44:56.150Z,23.63
2022-08-05T17:47:22.714Z,24.40
2022-08-05T17:49:52.039Z,24.13
2022-08-05T17:52:27.647Z,24.26
2022-08-05T17:54:53.999Z,23.33
2022-08-05T17:57:21.595Z,23.51
2022-08-05T17:59:52.799Z,24.34
2022-08-05T18:02:30.830Z,23.45
2022-08-05T18:04:57.491Z,23.48
2022-08-05T18:07:24.945Z,23.41
2022-08-05T18:10:08.824Z,23.36
2022-08-05T18:12:36.688Z,23.12
2022-08-05T18:15:03.562Z,22.25
2022-08-05T18:18:00.131Z,22.68
2022-08-05T18:20:17.077Z,22.81
2022-08-05T18:22:54.153Z,22.74
2022-08-05T18:25:21.158Z,23.14
2022-08-05T18:27:51.957Z,23.51
2022-08-05T18:30:18.913Z,23.28
2022-08-05T18:32:53.700Z,22.86
2022-08-05T18:35:49.636Z,22.64
2022-08-05T18:38:12.864Z,22.30
2022-08-05T18:41:53.902Z,22.38
2022-08-05T18:43:31.514Z,22.10
2022-08-05T18:46:03.932Z,21.92
2022-08-05T18:48:31.180Z,21.89
2022-08-05T18:51:49.597Z,21.20
2022-08-05T18:53:50.470Z,21.21
2022-08-05T18:56:16.801Z,21.03
2022-08-05T18:58:47.996Z,20.78
2022-08-05T19:01:19.039Z,20.83
2022-08-05T19:03:59.673Z,20.64
2022-08-05T19:06:34.031Z,20.49
2022-08-05T19:09:04.062Z,20.48
2022-08-05T19:11:37.124Z,19.90
2022-08-05T19:14:53.356Z,20.06
2022-08-05T19:17:02.537Z,19.75
2022-08-05T19:19:32.696Z,19.85
2022-08-05T19:22:00.226Z,19.70
2022-08-05T19:24:34.415Z,19.62
2022-08-05T19:27:01.275Z,19.65
2022-08-05T19:29:35.992Z,19.36
2022-08-05T19:32:02.730Z,19.36
2022-08-05T19:34:30.619Z,19.36
2022-08-05T19:36:56.752Z,19.05
2022-08-05T19:39:22.949Z,19.12
2022-08-05T19:42:07.627Z,19.05
2022-08-05T19:44:44.588Z,19.18
2022-08-05T19:47:11.494Z,18.79
2022-08-05T19:49:41.536Z,18.90
2022-08-05T19:52:13.278Z,18.77
2022-08-05T19:54:54.890Z,18.79
2022-08-05T19:57:47.413Z,18.79
2022-08-05T20:00:07.153Z,18.82
2022-08-05T20:02:33.308Z,18.62
2022-08-05T20:05:04.727Z,18.62
2022-08-05T20:07:47.182Z,18.37
2022-08-05T20:10:15.087Z,18.59
2022-08-05T20:12:47.597Z,18.56
2022-08-05T20:15:14.614Z,18.53
2022-08-05T20:17:40.747Z,18.45
2022-08-05T20:20:10.996Z,18.22
2022-08-05T20:22:37.351Z,18.28
2022-08-05T20:25:07.676Z,18.29
2022-08-05T20:27:41.580Z,18.36
2022-08-05T20:30:08.304Z,18.36
2022-08-05T20:32:34.437Z,18.31
2022-08-05T20:35:02.337Z,18.12
2022-08-05T20:38:06.385Z,17.96
2022-08-05T20:40:14.706Z,17.97
2022-08-05T20:42:44.096Z,18.00
2022-08-05T20:45:10.241Z,17.83
2022-08-05T20:47:40.122Z,17.90
2022-08-05T20:50:07.520Z,17.85
2022-08-05T20:52:33.776Z,17.64
2022-08-05T20:55:55.097Z,17.53
2022-08-05T20:57:46.811Z,17.58
2022-08-05T21:00:41.431Z,17.51
2022-08-05T21:03:01.667Z,17.57
2022-08-05T21:05:38.027Z,17.55
2022-08-05T21:08:13.980Z,17.55
2022-08-05T21:10:40.121Z,17.65
2022-08-05T21:13:25.924Z,17.57
2022-08-05T21:15:52.786Z,17.55
2022-08-05T21:18:18.919Z,17.57
2022-08-05T21:20:45.064Z,17.55
2022-08-05T21:23:12.602Z,17.46
2022-08-05T21:25:40.287Z,17.33
2022-08-05T21:28:06.675Z,17.25
2022-08-05T21:30:32.837Z,17.30
2022-08-05T21:32:58.987Z,17.46
2022-08-05T21:35:29.922Z,17.19
2022-08-05T21:37:56.662Z,17.31
2022-08-05T21:40:23.102Z,17.25
2022-08-05T21:42:51.977Z,17.31
2022-08-05T21:45:24.864Z,17.28
2022-08-05T21:48:06.346Z,17.16
2022-08-05T21:50:34.101Z,17.21
2022-08-05T21:53:04.348Z,17.42
2022-08-05T21:55:43.061Z,17.32
2022-08-05T21:58:20.668Z,17.29
2022-08-05T22:00:57.125Z,17.23
2022-08-05T22:03:51.923Z,17.26
2022-08-05T22:06:09.580Z,17.36
2022-08-05T22:08:35.749Z,17.28
2022-08-05T22:11:01.893Z,17.20
2022-08-05T22:14:06.587Z,17.12
2022-08-05T22:16:39.506Z,17.21
2022-08-05T22:19:57.044Z,17.12
2022-08-05T22:21:51.296Z,17.31
2022-08-05T22:24:40.883Z,17.21
2022-08-05T22:27:06.698Z,17.23
2022-08-05T22:29:33.228Z,17.04
2022-08-05T22:32:02.909Z,16.97
2022-08-05T22:34:30.075Z,17.00
2022-08-05T22:36:56.356Z,17.14
2022-08-05T22:39:25.864Z,17.01
2022-08-05T22:42:09.810Z,17.03
2022-08-05T22:44:39.104Z,16.97
2022-08-05T22:47:05.970Z,16.73
2022-08-05T22:50:20.259Z,16.52
2022-08-05T22:52:30.265Z,16.42
2022-08-05T22:54:58.872Z,16.53
2022-08-05T22:57:25.508Z,16.73
2022-08-05T22:59:54.327Z,16.91
2022-08-05T23:02:29.494Z,16.70
2022-08-05T23:04:56.338Z,16.66
2022-08-05T23:07:22.581Z,16.74
2022-08-05T23:09:57.198Z,16.45
2022-08-05T23:12:28.475Z,16.61
2022-08-05T23:14:54.945Z,16.34
2022-08-05T23:17:24.372Z,16.50
2022-08-05T23:19:59.186Z,16.43
2022-08-05T23:22:27.506Z,16.49
2022-08-05T23:24:53.930Z,16.39
2022-08-05T23:27:20.086Z,16.49
2022-08-05T23:29:48.768Z,16.57
2022-08-05T23:32:16.852Z,16.42
2022-08-05T23:34:48.750Z,16.31
2022-08-05T23:37:14.881Z,16.23
2022-08-05T23:39:53.286Z,16.13
2022-08-05T23:42:23.598Z,16.23
2022-08-05T23:44:55.598Z,16.15
2022-08-05T23:47:21.767Z,16.09
2022-08-05T23:49:52.115Z,16.21
2022-08-05T23:52:21.942Z,16.14
2022-08-05T23:54:51.517Z,16.02
2022-08-05T23:57:17.673Z,16.13
